Time;durP1;ratioP1;P1;durP2;ratioP2;P2;SDS_P1;SDS_P2;PMS_P1;PMS_P2;Temp;Humidity;BMP_temperature;BMP_pressure;BME280_temperature;BME280_humidity;BME280_pressure;Samples;Min_cycle;Max_cycle;Signal;HPM_P1;HPM_P2
2022/05/09 00:00:55;;;;;;;0.00;0.00;;;17.80;58.30;;;;;;4191746;28;20483;-65
2022/05/09 00:03:19;;;;;;;0.00;0.00;;;17.80;58.30;;;;;;4193685;28;20537;-65
2022/05/09 00:05:42;;;;;;;0.25;0.25;;;17.80;59.10;;;;;;4216923;27;20513;-65
2022/05/09 00:08:05;;;;;;;0.63;0.63;;;17.70;58.30;;;;;;4228585;27;20108;-65
2022/05/09 00:10:28;;;;;;;0.10;0.10;;;17.70;58.40;;;;;;4226711;28;20190;-65
2022/05/09 00:12:50;;;;;;;0.00;0.00;;;17.70;58.40;;;;;;4228223;27;20058;-65
2022/05/09 00:15:14;;;;;;;0.00;0.00;;;17.70;58.40;;;;;;4213086;28;20064;-65
2022/05/09 00:17:37;;;;;;;0.10;0.10;;;17.70;58.40;;;;;;4209616;28;20040;-65
2022/05/09 00:19:59;;;;;;;0.00;0.00;;;17.70;58.40;;;;;;4211188;28;20124;-65
2022/05/09 00:22:22;;;;;;;0.00;0.00;;;17.70;58.50;;;;;;4210699;28;20581;-65
2022/05/09 00:24:44;;;;;;;0.00;0.00;;;17.70;58.50;;;;;;4214416;28;20047;-65
2022/05/09 00:27:07;;;;;;;0.00;0.00;;;17.60;58.50;;;;;;4225584;28;20039;-65
2022/05/09 00:29:28;;;;;;;0.10;0.10;;;17.60;58.60;;;;;;4226357;28;20455;-66
2022/05/09 00:31:53;;;;;;;0.00;0.00;;;17.60;59.40;;;;;;4226465;28;20052;-65
2022/05/09 00:34:17;;;;;;;1.17;1.08;;;17.60;58.70;;;;;;4227110;28;20402;-65
2022/05/09 00:36:39;;;;;;;0.00;0.00;;;17.60;58.70;;;;;;4210622;28;20113;-66
2022/05/09 00:39:03;;;;;;;0.10;0.10;;;17.60;58.70;;;;;;4210545;28;20051;-65
2022/05/09 00:41:34;;;;;;;0.00;0.00;;;17.60;58.80;;;;;;4210820;28;20067;-66
2022/05/09 00:43:57;;;;;;;0.00;0.00;;;17.60;58.80;;;;;;4210436;28;20109;-65
2022/05/09 00:46:19;;;;;;;0.00;0.00;;;17.60;58.80;;;;;;4227446;28;20055;-65
2022/05/09 00:48:41;;;;;;;0.00;0.00;;;17.60;58.80;;;;;;4227469;27;20124;-65
2022/05/09 00:51:06;;;;;;;0.00;0.00;;;17.60;58.80;;;;;;4227168;27;20047;-65
2022/05/09 00:53:31;;;;;;;0.00;0.00;;;17.60;58.80;;;;;;4227095;27;20048;-65
2022/05/09 00:55:58;;;;;;;0.00;0.00;;;17.50;58.90;;;;;;4210935;28;20127;-65
2022/05/09 00:58:25;;;;;;;2.65;1.55;;;17.50;58.80;;;;;;4210989;28;20080;-65
2022/05/09 01:00:47;;;;;;;0.00;0.00;;;17.50;58.90;;;;;;4210870;28;20097;-65
2022/05/09 01:03:13;;;;;;;0.00;0.00;;;17.50;58.90;;;;;;4210413;28;20054;-65
2022/05/09 01:05:37;;;;;;;0.00;0.00;;;17.50;58.90;;;;;;4225888;27;20483;-65
2022/05/09 01:08:00;;;;;;;0.00;0.00;;;17.50;59.00;;;;;;4225592;28;20128;-65
2022/05/09 01:10:28;;;;;;;0.00;0.00;;;17.50;59.00;;;;;;4227194;27;20036;-65
2022/05/09 01:12:52;;;;;;;0.00;0.00;;;17.50;59.00;;;;;;4226546;27;20055;-66
2022/05/09 01:15:17;;;;;;;0.08;0.08;;;17.40;59.00;;;;;;4211733;28;20084;-65
2022/05/09 01:17:40;;;;;;;0.00;0.00;;;17.50;59.00;;;;;;4209751;28;20483;-65
2022/05/09 01:20:03;;;;;;;0.00;0.00;;;17.40;59.00;;;;;;4210106;28;20075;-66
2022/05/09 01:22:29;;;;;;;0.80;0.80;;;17.40;59.00;;;;;;4209848;28;20045;-66
2022/05/09 01:24:53;;;;;;;0.00;0.00;;;17.40;59.10;;;;;;4219093;27;20043;-66
2022/05/09 01:27:15;;;;;;;0.00;0.00;;;17.40;59.10;;;;;;4226339;28;20046;-65
2022/05/09 01:29:45;;;;;;;0.00;0.00;;;17.40;59.10;;;;;;4226084;27;20052;-66
2022/05/09 01:32:11;;;;;;;0.00;0.00;;;17.40;59.20;;;;;;4226540;27;20097;-66
2022/05/09 01:34:36;;;;;;;0.10;0.10;;;17.40;59.20;;;;;;4219384;27;20055;-66
2022/05/09 01:37:03;;;;;;;0.00;0.00;;;17.40;59.20;;;;;;4210158;28;20066;-66
2022/05/09 01:39:29;;;;;;;0.45;0.45;;;17.30;59.20;;;;;;4209533;28;20059;-66
2022/05/09 01:41:51;;;;;;;0.50;0.50;;;17.40;59.30;;;;;;4210393;28;20402;-66
2022/05/09 01:44:16;;;;;;;0.00;0.00;;;17.40;59.30;;;;;;4217130;28;20048;-66
2022/05/09 01:49:29;;;;;;;0.00;0.00;;;17.30;59.30;;;;;;4213231;28;20134;-66
2022/05/09 01:49:29;;;;;;;0.00;0.00;;;17.30;59.40;;;;;;4209523;28;20087;-65
2022/05/09 01:51:52;;;;;;;0.00;0.00;;;17.30;59.40;;;;;;4209585;28;20071;-65
2022/05/09 01:54:15;;;;;;;0.00;0.00;;;17.30;59.50;;;;;;4220192;27;20126;-65
2022/05/09 01:56:40;;;;;;;0.05;0.05;;;17.30;59.50;;;;;;4226410;27;20042;-66
2022/05/09 01:59:04;;;;;;;0.00;0.00;;;17.30;59.60;;;;;;4209982;28;20055;-66
2022/05/09 02:01:29;;;;;;;0.00;0.00;;;17.20;59.60;;;;;;4226227;28;20075;-66
2022/05/09 02:03:51;;;;;;;0.00;0.00;;;17.20;60.40;;;;;;4218078;28;20040;-66
2022/05/09 02:06:14;;;;;;;0.00;0.00;;;17.30;60.50;;;;;;4208841;28;20063;-66
2022/05/09 02:08:37;;;;;;;0.00;0.00;;;17.30;59.70;;;;;;4208896;28;20419;-66
2022/05/09 02:10:59;;;;;;;0.00;0.00;;;17.20;60.60;;;;;;4208081;28;20059;-67
2022/05/09 02:13:23;;;;;;;0.00;0.00;;;17.20;59.70;;;;;;4225579;28;20081;-65
2022/05/09 02:15:45;;;;;;;0.00;0.00;;;17.20;59.80;;;;;;4191140;28;22746;-66
2022/05/09 02:18:08;;;;;;;2.17;1.33;;;17.20;59.80;;;;;;4192572;28;20534;-66
2022/05/09 02:20:30;;;;;;;0.22;0.22;;;17.20;59.80;;;;;;4190444;28;20101;-66
2022/05/09 02:22:52;;;;;;;0.00;0.00;;;17.20;59.80;;;;;;4192409;28;20040;-71
2022/05/09 02:25:33;;;;;;;0.00;0.00;;;17.20;59.90;;;;;;4192039;28;20037;-66
2022/05/09 02:27:56;;;;;;;0.00;0.00;;;17.20;59.90;;;;;;4191608;28;20055;-67
2022/05/09 02:30:19;;;;;;;0.00;0.00;;;17.20;59.90;;;;;;4191022;28;20040;-67
2022/05/09 02:32:42;;;;;;;0.00;0.00;;;17.10;59.90;;;;;;4190748;28;20111;-66
2022/05/09 02:35:05;;;;;;;0.13;0.13;;;17.10;60.00;;;;;;4191917;28;20107;-67
2022/05/09 02:37:27;;;;;;;0.15;0.15;;;17.10;60.00;;;;;;4192199;28;20461;-66
2022/05/09 02:39:51;;;;;;;0.30;0.30;;;17.10;60.90;;;;;;4190643;28;20376;-67
2022/05/09 02:42:13;;;;;;;0.00;0.00;;;17.10;60.10;;;;;;4192071;28;20137;-67
2022/05/09 02:44:35;;;;;;;0.00;0.00;;;17.10;60.10;;;;;;4208010;28;20043;-67
2022/05/09 02:46:59;;;;;;;0.00;0.00;;;17.10;60.10;;;;;;4208765;28;20101;-67
2022/05/09 02:49:21;;;;;;;0.00;0.00;;;17.10;60.10;;;;;;4207824;28;20044;-66
2022/05/09 02:51:46;;;;;;;0.68;0.68;;;17.10;60.20;;;;;;4208062;28;20406;-66
2022/05/09 02:54:09;;;;;;;0.00;0.00;;;17.10;60.20;;;;;;4208147;28;20051;-66
2022/05/09 02:56:31;;;;;;;0.47;0.45;;;17.10;60.20;;;;;;4208429;28;20135;-66
2022/05/09 02:58:53;;;;;;;0.00;0.00;;;17.10;60.30;;;;;;4208949;28;20077;-67
2022/05/09 03:01:16;;;;;;;0.00;0.00;;;17.00;60.20;;;;;;4208824;28;20447;-67
2022/05/09 03:06:20;;;;;;;0.00;0.00;;;17.00;60.30;;;;;;4222052;28;20051;-66
2022/05/09 03:08:43;;;;;;;0.00;0.00;;;17.00;60.30;;;;;;4209378;28;20453;-66
2022/05/09 03:11:06;;;;;;;0.00;0.00;;;17.00;60.40;;;;;;4225038;28;20061;-66
2022/05/09 03:13:28;;;;;;;0.00;0.00;;;17.00;60.40;;;;;;4224860;28;20117;-66
2022/05/09 03:15:51;;;;;;;0.10;0.10;;;17.00;60.50;;;;;;4208790;28;20493;-66
2022/05/09 03:18:16;;;;;;;0.00;0.00;;;17.00;60.50;;;;;;4207965;28;20055;-66
2022/05/09 03:20:40;;;;;;;0.00;0.00;;;16.90;60.60;;;;;;4207804;28;20060;-66
2022/05/09 03:23:04;;;;;;;0.00;0.00;;;17.00;60.60;;;;;;4206720;28;20127;-66
2022/05/09 03:25:27;;;;;;;0.00;0.00;;;16.90;60.50;;;;;;4208498;28;20410;-66
2022/05/09 03:27:49;;;;;;;0.20;0.20;;;16.90;60.50;;;;;;4208429;28;20082;-66
2022/05/09 03:30:14;;;;;;;0.00;0.00;;;16.90;60.50;;;;;;4208318;28;20051;-66
2022/05/09 03:32:36;;;;;;;0.00;0.00;;;16.90;60.50;;;;;;4222236;28;20156;-66
2022/05/09 03:34:59;;;;;;;0.38;0.38;;;16.90;60.60;;;;;;4224571;28;20052;-66
2022/05/09 03:37:23;;;;;;;0.00;0.00;;;16.90;60.50;;;;;;4224824;28;20071;-67
2022/05/09 03:39:46;;;;;;;0.00;0.00;;;16.90;60.40;;;;;;4227052;28;20075;-67
2022/05/09 03:42:08;;;;;;;0.00;0.00;;;16.90;60.40;;;;;;4216562;27;20083;-66
2022/05/09 03:44:33;;;;;;;0.00;0.00;;;16.90;60.50;;;;;;4211994;28;20058;-66
2022/05/09 03:46:56;;;;;;;1.90;1.02;;;16.90;60.40;;;;;;4211413;28;20097;-66
2022/05/09 03:49:19;;;;;;;0.00;0.00;;;16.90;60.50;;;;;;4210383;28;20131;-66
2022/05/09 03:51:41;;;;;;;0.00;0.00;;;16.90;60.50;;;;;;4220569;27;20047;-66
2022/05/09 03:54:05;;;;;;;0.00;0.00;;;16.80;60.50;;;;;;4226793;28;20512;-67
2022/05/09 03:56:28;;;;;;;0.00;0.00;;;16.80;60.50;;;;;;4228233;27;20135;-66
2022/05/09 03:58:50;;;;;;;0.57;0.43;;;16.80;60.50;;;;;;4227780;27;20047;-66
2022/05/09 04:01:12;;;;;;;0.00;0.00;;;16.80;60.50;;;;;;4225149;27;20048;-67
2022/05/09 04:03:35;;;;;;;0.00;0.00;;;16.80;60.50;;;;;;4225234;28;20044;-66
2022/05/09 04:05:58;;;;;;;0.00;0.00;;;16.80;60.50;;;;;;4226956;27;20563;-66
2022/05/09 04:08:21;;;;;;;0.00;0.00;;;16.80;60.50;;;;;;4211047;28;20062;-68
2022/05/09 04:10:46;;;;;;;0.00;0.00;;;16.80;60.50;;;;;;4210896;28;20054;-67
2022/05/09 04:13:08;;;;;;;0.17;0.17;;;16.80;60.50;;;;;;4209882;28;20051;-67
2022/05/09 04:18:11;;;;;;;0.00;0.00;;;16.80;60.60;;;;;;4195026;28;20056;-67
2022/05/09 04:20:37;;;;;;;0.22;0.22;;;16.80;60.60;;;;;;4223338;27;20073;-66
2022/05/09 04:23:00;;;;;;;1.15;0.57;;;16.70;60.50;;;;;;4225805;28;20105;-67
2022/05/09 04:25:24;;;;;;;0.20;0.20;;;16.70;60.50;;;;;;4225955;27;20054;-67
2022/05/09 04:27:49;;;;;;;0.00;0.00;;;16.70;60.50;;;;;;4226952;27;20058;-68
2022/05/09 04:30:13;;;;;;;0.00;0.00;;;16.80;60.60;;;;;;4215811;28;20055;-66
2022/05/09 04:32:35;;;;;;;0.00;0.00;;;16.80;60.60;;;;;;4210082;28;20048;-67
2022/05/09 04:34:59;;;;;;;0.00;0.00;;;16.70;60.40;;;;;;4210379;28;20135;-67
2022/05/09 04:37:21;;;;;;;0.00;0.00;;;16.80;60.50;;;;;;4208245;28;20490;-67
2022/05/09 04:39:44;;;;;;;0.00;0.00;;;16.70;60.40;;;;;;4213817;27;20047;-67
2022/05/09 04:42:08;;;;;;;0.00;0.00;;;16.80;60.50;;;;;;4226348;28;20047;-66
2022/05/09 04:44:31;;;;;;;0.00;0.00;;;16.70;60.40;;;;;;4217780;27;20075;-67
2022/05/09 04:46:54;;;;;;;0.47;0.47;;;16.70;60.50;;;;;;4209265;28;20421;-66
2022/05/09 04:49:16;;;;;;;0.00;0.00;;;16.70;60.60;;;;;;4208259;28;20048;-67
2022/05/09 04:51:38;;;;;;;0.25;0.25;;;16.70;60.60;;;;;;4210544;28;20489;-67
2022/05/09 04:54:00;;;;;;;0.00;0.00;;;16.80;60.60;;;;;;4210136;28;20134;-67
2022/05/09 04:56:22;;;;;;;0.00;0.00;;;16.80;60.60;;;;;;4209865;28;20050;-67
2022/05/09 04:58:45;;;;;;;11.40;2.38;;;16.90;60.60;;;;;;4210014;28;20052;-67
2022/05/09 05:01:09;;;;;;;0.00;0.00;;;16.80;60.50;;;;;;4193867;28;20036;-68
2022/05/09 05:03:32;;;;;;;0.00;0.00;;;16.90;60.40;;;;;;4193565;28;20415;-67
2022/05/09 05:05:54;;;;;;;0.10;0.10;;;16.90;60.60;;;;;;4178328;28;20037;-68
2022/05/09 05:08:17;;;;;;;0.00;0.00;;;16.90;61.10;;;;;;4195686;28;20048;-69
2022/05/09 05:10:39;;;;;;;0.00;0.00;;;17.00;61.50;;;;;;4221191;27;20479;-68
2022/05/09 05:13:03;;;;;;;0.50;0.50;;;17.00;61.20;;;;;;4228522;27;20050;-68
2022/05/09 05:15:25;;;;;;;0.00;0.00;;;17.00;61.00;;;;;;4201833;28;20049;-67
2022/05/09 05:17:49;;;;;;;0.70;0.45;;;17.00;61.00;;;;;;4214843;28;20068;-67
2022/05/09 05:20:14;;;;;;;0.15;0.15;;;17.00;60.90;;;;;;4204561;28;20127;-67
2022/05/09 05:22:38;;;;;;;0.00;0.00;;;17.00;60.90;;;;;;4203725;28;20060;-67
2022/05/09 05:25:00;;;;;;;0.57;0.57;;;17.00;61.70;;;;;;4209450;28;20052;-67
2022/05/09 05:27:23;;;;;;;0.00;0.00;;;17.00;60.80;;;;;;4220321;28;20127;-67
2022/05/09 05:29:46;;;;;;;0.00;0.00;;;17.00;60.80;;;;;;4226428;27;20130;-67
2022/05/09 05:32:15;;;;;;;0.00;0.00;;;17.00;60.80;;;;;;4209426;28;20148;-67
2022/05/09 05:34:39;;;;;;;0.13;0.13;;;17.00;60.80;;;;;;4191248;28;20051;-67
2022/05/09 05:37:01;;;;;;;0.00;0.00;;;17.00;60.80;;;;;;4218290;28;20098;-68
2022/05/09 05:39:24;;;;;;;0.00;0.00;;;17.10;60.80;;;;;;4225891;28;20048;-67
2022/05/09 05:41:46;;;;;;;1.75;1.25;;;17.10;60.70;;;;;;4226516;27;20043;-69
2022/05/09 05:44:11;;;;;;;13.82;2.13;;;17.10;61.60;;;;;;4222032;28;20134;-67
2022/05/09 05:46:33;;;;;;;1.55;1.10;;;17.10;60.60;;;;;;4226604;27;20047;-67
2022/05/09 05:48:56;;;;;;;0.00;0.00;;;17.00;60.60;;;;;;4213681;27;20055;-65
2022/05/09 05:51:19;;;;;;;0.00;0.00;;;17.00;60.60;;;;;;4192871;28;20051;-69
2022/05/09 05:53:42;;;;;;;0.00;0.00;;;17.00;61.70;;;;;;4192596;28;20036;-69
2022/05/09 05:56:04;;;;;;;0.90;0.55;;;17.00;60.80;;;;;;4192332;28;20048;-69
2022/05/09 05:58:28;;;;;;;0.10;0.10;;;17.00;60.90;;;;;;4192785;28;20051;-70
2022/05/09 06:00:50;;;;;;;0.00;0.00;;;17.00;60.90;;;;;;4207388;28;20051;-69
2022/05/09 06:03:15;;;;;;;0.00;0.00;;;17.00;60.90;;;;;;4209148;28;20528;-69
2022/05/09 06:05:37;;;;;;;0.00;0.00;;;17.00;60.70;;;;;;4209085;28;20047;-70
2022/05/09 06:08:01;;;;;;;0.65;0.65;;;17.00;60.90;;;;;;4207675;28;20120;-69
2022/05/09 06:10:25;;;;;;;0.00;0.00;;;17.00;61.00;;;;;;4209563;28;20062;-69
2022/05/09 06:12:48;;;;;;;5.93;2.45;;;17.00;62.00;;;;;;4209370;28;20127;-66
2022/05/09 06:15:28;;;;;;;0.00;0.00;;;17.00;61.10;;;;;;4208850;28;20040;-70
2022/05/09 06:17:51;;;;;;;0.47;0.47;;;17.00;61.10;;;;;;4207262;28;20400;-69
2022/05/09 06:20:13;;;;;;;0.00;0.00;;;17.00;61.30;;;;;;4209613;28;20047;-69
2022/05/09 06:22:38;;;;;;;0.00;0.00;;;17.00;62.30;;;;;;4208020;28;20048;-69
2022/05/09 06:25:05;;;;;;;0.00;0.00;;;17.00;61.50;;;;;;4192060;28;20046;-69
2022/05/09 06:27:27;;;;;;;0.00;0.00;;;17.00;61.60;;;;;;4192378;28;20496;-69
2022/05/09 06:29:49;;;;;;;0.00;0.00;;;17.00;61.70;;;;;;4192327;28;20053;-69
2022/05/09 06:32:13;;;;;;;0.55;0.38;;;17.00;61.70;;;;;;4192031;28;20044;-69
2022/05/09 06:34:35;;;;;;;1.10;0.65;;;17.00;61.70;;;;;;4192331;28;20055;-69
2022/05/09 06:36:56;;;;;;;0.20;0.20;;;17.00;62.60;;;;;;4191008;28;20054;-69
2022/05/09 06:39:18;;;;;;;0.00;0.00;;;17.00;61.70;;;;;;4192485;28;20048;-68
2022/05/09 06:41:42;;;;;;;0.00;0.00;;;17.00;61.70;;;;;;4191080;28;20036;-68
2022/05/09 06:44:05;;;;;;;0.52;0.52;;;17.10;61.80;;;;;;4196613;28;20109;-69
2022/05/09 06:46:27;;;;;;;0.00;0.00;;;17.10;61.80;;;;;;4209278;28;20059;-68
2022/05/09 06:48:49;;;;;;;0.10;0.10;;;17.10;61.80;;;;;;4207004;28;20047;-68
2022/05/09 06:51:12;;;;;;;0.00;0.00;;;17.20;61.90;;;;;;4208707;28;20117;-68
2022/05/09 06:53:34;;;;;;;0.00;0.00;;;17.20;61.80;;;;;;4207799;28;20048;-69
2022/05/09 06:55:56;;;;;;;0.00;0.00;;;17.30;61.90;;;;;;4200251;28;20036;-69
2022/05/09 06:58:25;;;;;;;0.10;0.10;;;17.40;61.90;;;;;;4208878;28;20048;-69
2022/05/09 07:00:48;;;;;;;0.98;0.98;;;17.40;61.80;;;;;;4207000;28;20075;-69
2022/05/09 07:03:12;;;;;;;0.00;0.00;;;17.50;61.80;;;;;;4207108;28;20048;-69
2022/05/09 07:05:34;;;;;;;0.10;0.10;;;17.50;61.60;;;;;;4222939;28;20535;-70
2022/05/09 07:07:57;;;;;;;0.00;0.00;;;17.60;61.60;;;;;;4225565;28;20126;-68
2022/05/09 07:10:20;;;;;;;0.00;0.00;;;17.60;61.40;;;;;;4225064;28;20108;-73
2022/05/09 07:12:43;;;;;;;0.20;0.20;;;17.70;61.30;;;;;;4225910;27;20071;-73
2022/05/09 07:15:08;;;;;;;0.80;0.35;;;17.70;61.90;;;;;;4214421;28;20051;-73
2022/05/09 07:17:30;;;;;;;0.00;0.00;;;17.80;60.80;;;;;;4212401;28;20131;-72
2022/05/09 07:19:52;;;;;;;0.00;0.00;;;17.80;60.50;;;;;;4214406;28;20483;-72
2022/05/09 07:22:15;;;;;;;0.00;0.00;;;17.90;60.30;;;;;;4214608;28;20097;-73
2022/05/09 07:24:38;;;;;;;0.00;0.00;;;17.90;60.20;;;;;;4210360;28;20054;-72
2022/05/09 07:27:00;;;;;;;0.22;0.22;;;17.90;60.90;;;;;;4196407;28;20045;-72
2022/05/09 07:29:22;;;;;;;0.00;0.00;;;18.00;60.00;;;;;;4196056;28;20051;-73
2022/05/09 07:31:46;;;;;;;0.00;0.00;;;18.00;59.90;;;;;;4195978;28;20582;-73
2022/05/09 07:34:08;;;;;;;0.00;0.00;;;18.10;59.70;;;;;;4197791;28;20066;-72
2022/05/09 07:36:30;;;;;;;0.00;0.00;;;18.10;60.40;;;;;;4198228;28;20044;-72
2022/05/09 07:38:55;;;;;;;0.00;0.00;;;18.10;59.50;;;;;;4197519;28;20170;-73
2022/05/09 07:41:18;;;;;;;0.38;0.38;;;18.10;59.50;;;;;;4196350;28;20127;-73
2022/05/09 07:43:40;;;;;;;0.00;0.00;;;18.20;59.50;;;;;;4224876;27;20074;-72
2022/05/09 07:46:05;;;;;;;0.10;0.10;;;18.20;59.40;;;;;;4215077;28;20052;-73
2022/05/09 07:48:39;;;;;;;0.00;0.00;;;18.20;59.20;;;;;;4214260;28;20040;-72
2022/05/09 07:51:01;;;;;;;0.52;0.52;;;18.20;59.20;;;;;;4214372;28;20075;-72
2022/05/09 07:53:25;;;;;;;0.00;0.00;;;18.20;59.10;;;;;;4214075;28;20394;-72
2022/05/09 07:55:48;;;;;;;0.13;0.13;;;18.30;59.60;;;;;;4214160;28;20056;-72
2022/05/09 07:58:13;;;;;;;0.80;0.80;;;18.20;58.60;;;;;;4198364;28;20138;-72
2022/05/09 08:00:35;;;;;;;0.00;0.00;;;18.30;58.60;;;;;;4215520;27;20075;-72
2022/05/09 08:02:59;;;;;;;0.00;0.00;;;18.30;58.90;;;;;;4229489;27;20043;-72
2022/05/09 08:05:22;;;;;;;3.53;1.75;;;18.30;58.60;;;;;;4231152;27;20134;-69
2022/05/09 08:07:46;;;;;;;0.22;0.22;;;18.40;59.10;;;;;;4231121;27;20378;-68
2022/05/09 08:10:10;;;;;;;0.95;0.88;;;18.40;59.60;;;;;;4221202;27;20172;-68
2022/05/09 08:12:32;;;;;;;0.32;0.30;;;18.40;60.30;;;;;;4227483;27;20055;-70
2022/05/09 08:14:55;;;;;;;0.00;0.00;;;18.40;59.50;;;;;;4217317;27;20047;-69
2022/05/09 08:17:20;;;;;;;2.00;1.88;;;18.40;59.90;;;;;;4198993;28;20464;-70
2022/05/09 08:19:43;;;;;;;0.00;0.00;;;18.40;60.20;;;;;;4213666;28;20144;-69
2022/05/09 08:22:07;;;;;;;0.00;0.00;;;18.50;60.10;;;;;;4212896;28;20117;-69
2022/05/09 08:24:35;;;;;;;1.88;1.55;;;18.50;60.00;;;;;;4209647;28;20485;-69
2022/05/09 08:26:57;;;;;;;0.05;0.05;;;18.50;59.70;;;;;;4211362;28;20110;-69
2022/05/09 08:29:19;;;;;;;0.00;0.00;;;18.50;59.60;;;;;;4193638;28;20052;-69
2022/05/09 08:31:41;;;;;;;0.00;0.00;;;18.50;59.30;;;;;;4200054;28;20048;-69
2022/05/09 08:34:03;;;;;;;0.00;0.00;;;18.60;58.90;;;;;;4211531;28;20063;-69
2022/05/09 08:39:08;;;;;;;10.50;4.03;;;18.60;58.10;;;;;;4210898;28;20093;-67
2022/05/09 08:41:36;;;;;;;0.20;0.20;;;18.60;57.60;;;;;;4211388;28;20047;-67
2022/05/09 08:44:10;;;;;;;1.05;0.60;;;18.60;57.60;;;;;;4210631;28;20463;-67
2022/05/09 08:46:39;;;;;;;0.30;0.30;;;18.60;57.80;;;;;;4211058;28;20051;-66
2022/05/09 08:49:23;;;;;;;0.00;0.00;;;18.70;57.70;;;;;;4223449;28;20058;-66
2022/05/09 08:51:56;;;;;;;0.10;0.10;;;18.70;57.60;;;;;;4227757;28;20054;-66
2022/05/09 08:54:24;;;;;;;0.00;0.00;;;18.80;57.40;;;;;;4225422;28;20047;-66
2022/05/09 08:56:51;;;;;;;0.00;0.00;;;18.80;57.20;;;;;;4226170;27;20564;-65
2022/05/09 08:59:24;;;;;;;0.68;0.68;;;18.80;56.90;;;;;;4215855;28;20089;-66
2022/05/09 09:01:52;;;;;;;0.20;0.20;;;18.90;56.80;;;;;;4227420;27;20058;-67
2022/05/09 09:04:21;;;;;;;0.10;0.10;;;18.90;56.60;;;;;;4226054;27;20474;-65
2022/05/09 09:06:56;;;;;;;0.25;0.25;;;18.90;56.30;;;;;;4225471;27;20047;-66
2022/05/09 09:09:34;;;;;;;0.00;0.00;;;19.00;55.50;;;;;;4192562;28;20055;-65
2022/05/09 09:12:06;;;;;;;2.83;0.40;;;19.00;55.50;;;;;;4194185;28;20083;-66
2022/05/09 09:14:43;;;;;;;1.40;1.30;;;19.00;55.70;;;;;;4201231;28;20078;-66
2022/05/09 09:17:14;;;;;;;0.63;0.63;;;19.10;55.60;;;;;;4211315;28;20047;-66
2022/05/09 09:19:53;;;;;;;0.00;0.00;;;19.10;55.30;;;;;;4210251;28;20485;-67
2022/05/09 09:22:28;;;;;;;0.85;0.85;;;19.20;55.30;;;;;;4210198;28;20101;-66
2022/05/09 09:25:08;;;;;;;0.77;0.77;;;19.20;55.00;;;;;;4211324;28;20070;-67
2022/05/09 09:27:41;;;;;;;0.00;0.00;;;19.20;54.80;;;;;;4210491;28;20086;-67
2022/05/09 09:30:10;;;;;;;1.40;1.30;;;19.20;54.70;;;;;;4210084;28;20056;-67
2022/05/09 09:32:33;;;;;;;1.02;0.93;;;19.30;54.40;;;;;;4209177;28;20066;-67
2022/05/09 09:35:00;;;;;;;0.63;0.63;;;19.30;53.10;;;;;;4207956;27;20582;-68
2022/05/09 09:37:33;;;;;;;0.63;0.63;;;19.40;54.00;;;;;;4222155;28;20436;-68
2022/05/09 09:39:56;;;;;;;15.77;5.18;;;19.40;54.20;;;;;;4227311;27;20146;-67
2022/05/09 09:42:18;;;;;;;0.85;0.85;;;19.50;53.90;;;;;;4226473;27;20116;-67
2022/05/09 09:44:44;;;;;;;0.00;0.00;;;19.50;53.50;;;;;;4223730;28;20131;-67
2022/05/09 09:47:10;;;;;;;0.00;0.00;;;19.50;53.20;;;;;;4225334;28;20067;-67
2022/05/09 09:49:48;;;;;;;0.00;0.00;;;19.60;53.10;;;;;;4226493;27;20040;-67
2022/05/09 09:52:19;;;;;;;0.63;0.63;;;19.60;53.00;;;;;;4227397;28;20455;-67
2022/05/09 09:54:49;;;;;;;0.43;0.43;;;19.70;53.70;;;;;;4217190;27;20052;-67
2022/05/09 09:57:19;;;;;;;0.80;0.80;;;19.70;51.90;;;;;;4209441;28;20391;-67
2022/05/09 09:59:41;;;;;;;0.08;0.08;;;19.70;52.20;;;;;;4209338;28;20217;-67
2022/05/09 10:02:08;;;;;;;0.00;0.00;;;19.80;52.20;;;;;;4209422;28;20048;-67
2022/05/09 10:04:30;;;;;;;0.00;0.00;;;19.80;51.00;;;;;;4211216;28;20523;-66
2022/05/09 10:06:59;;;;;;;0.00;0.00;;;19.80;51.70;;;;;;4209571;28;20048;-67
2022/05/09 10:09:22;;;;;;;3.72;2.05;;;19.80;51.70;;;;;;4209547;28;20050;-67
2022/05/09 10:11:44;;;;;;;0.32;0.32;;;19.80;51.50;;;;;;4223652;27;20073;-66
2022/05/09 10:14:10;;;;;;;0.57;0.57;;;19.90;51.60;;;;;;4226033;28;20039;-67
2022/05/09 10:16:35;;;;;;;0.40;0.40;;;19.90;51.60;;;;;;4226035;28;20047;-66
2022/05/09 10:18:58;;;;;;;0.00;0.00;;;19.90;52.20;;;;;;4224664;28;20529;-66
2022/05/09 10:26:53;;;;;;;0.00;0.00;;;20.00;51.10;;;;;;4225930;28;20040;-67
2022/05/09 10:29:18;;;;;;;0.00;0.00;;;20.00;51.00;;;;;;4217364;27;20048;-67
2022/05/09 10:31:45;;;;;;;0.40;0.40;;;20.00;50.90;;;;;;4211288;28;20040;-66
2022/05/09 10:34:11;;;;;;;0.00;0.00;;;20.10;50.90;;;;;;4207055;28;20142;-67
2022/05/09 10:36:42;;;;;;;0.40;0.40;;;20.10;50.90;;;;;;4207890;28;20791;-65
2022/05/09 10:39:11;;;;;;;0.00;0.00;;;20.10;51.50;;;;;;4209145;28;20080;-65
2022/05/09 10:41:40;;;;;;;0.00;0.00;;;20.10;50.50;;;;;;4209101;28;20128;-67
2022/05/09 10:44:12;;;;;;;0.03;0.03;;;20.20;50.30;;;;;;4208617;28;20471;-66
2022/05/09 10:46:43;;;;;;;0.00;0.00;;;20.20;50.10;;;;;;4208487;28;20109;-65
2022/05/09 10:49:17;;;;;;;0.13;0.13;;;20.20;50.20;;;;;;4208403;28;20044;-66
2022/05/09 10:51:46;;;;;;;0.17;0.17;;;20.20;50.10;;;;;;4208698;28;20051;-66
2022/05/09 10:54:15;;;;;;;0.00;0.00;;;20.30;50.10;;;;;;4209168;28;20094;-68
2022/05/09 10:56:45;;;;;;;0.00;0.00;;;20.30;50.10;;;;;;4209042;28;20044;-66
2022/05/09 10:59:10;;;;;;;1.13;1.00;;;20.30;50.00;;;;;;4191937;28;20059;-68
2022/05/09 11:01:41;;;;;;;0.00;0.00;;;20.30;50.60;;;;;;4191825;28;20040;-67
2022/05/09 11:04:05;;;;;;;0.00;0.00;;;20.30;50.50;;;;;;4194012;28;20051;-67
2022/05/09 11:06:34;;;;;;;0.00;0.00;;;20.40;50.00;;;;;;4208680;28;20113;-67
2022/05/09 11:09:16;;;;;;;0.80;0.73;;;20.40;50.00;;;;;;4204612;28;20054;-66
2022/05/09 11:11:48;;;;;;;0.00;0.00;;;20.40;49.80;;;;;;4208493;28;20071;-66
2022/05/09 11:14:17;;;;;;;0.00;0.00;;;20.40;49.70;;;;;;4207796;28;20126;-67
2022/05/09 11:16:54;;;;;;;3.40;1.00;;;20.50;49.70;;;;;;4208822;28;20483;-67
2022/05/09 11:19:31;;;;;;;0.47;0.47;;;20.50;49.70;;;;;;4191312;28;20127;-68
2022/05/09 11:22:00;;;;;;;0.00;0.00;;;20.50;49.30;;;;;;4191954;28;20564;-67
2022/05/09 11:24:43;;;;;;;0.00;0.00;;;20.50;49.20;;;;;;4190240;28;20500;-67
2022/05/09 11:27:19;;;;;;;0.00;0.00;;;20.60;49.30;;;;;;4192011;28;20494;-67
2022/05/09 11:30:23;;;;;;;0.00;0.00;;;20.60;49.80;;;;;;4191501;28;20121;-68
2022/05/09 11:32:46;;;;;;;5.07;1.58;;;20.60;49.00;;;;;;4191884;28;20072;-67
2022/05/09 11:35:28;;;;;;;2.25;0.88;;;20.60;48.80;;;;;;4205527;28;20054;-67
2022/05/09 11:38:03;;;;;;;0.65;0.65;;;20.60;48.60;;;;;;4208380;28;20501;-66
2022/05/09 11:40:31;;;;;;;0.00;0.00;;;20.60;48.20;;;;;;4208388;28;20062;-69
2022/05/09 11:45:49;;;;;;;0.00;0.00;;;20.70;48.20;;;;;;4209834;28;20413;-67
2022/05/09 11:48:21;;;;;;;0.08;0.08;;;20.70;48.10;;;;;;4208630;28;20514;-67
2022/05/09 11:50:47;;;;;;;;;;;20.70;48.00;;;;;;4209130;28;20369;-67
2022/05/09 11:53:10;;;;;;;0.00;0.00;;;20.80;48.20;;;;;;4208807;28;19927;-67
2022/05/09 11:55:33;;;;;;;0.00;0.00;;;20.80;47.90;;;;;;4209527;28;20050;-67
2022/05/09 11:57:58;;;;;;;0.00;0.00;;;20.80;47.70;;;;;;4207384;28;20521;-66
2022/05/09 12:00:52;;;;;;;0.00;0.00;;;20.80;47.60;;;;;;4211819;28;20059;-66
2022/05/09 12:03:15;;;;;;;0.00;0.00;;;20.90;47.70;;;;;;4214835;27;20138;-67
2022/05/09 12:05:54;;;;;;;9.65;1.55;;;20.90;47.50;;;;;;4209742;28;20102;-68
2022/05/09 12:08:19;;;;;;;0.10;0.10;;;20.90;47.30;;;;;;4211177;28;20075;-67
2022/05/09 12:10:43;;;;;;;0.22;0.22;;;21.00;47.40;;;;;;4210938;28;20479;-67
2022/05/09 12:13:07;;;;;;;0.00;0.00;;;21.00;47.30;;;;;;4212087;28;20066;-67
2022/05/09 12:15:45;;;;;;;0.00;0.00;;;21.00;47.30;;;;;;4211346;28;20078;-67
2022/05/09 12:18:24;;;;;;;0.00;0.00;;;21.00;47.00;;;;;;4211041;28;20079;-67
2022/05/09 12:21:14;;;;;;;0.00;0.00;;;21.00;46.90;;;;;;4211494;28;20040;-67
2022/05/09 12:24:12;;;;;;;0.10;0.10;;;21.10;46.80;;;;;;4211928;28;20056;-66
2022/05/09 12:26:36;;;;;;;0.00;0.00;;;21.10;46.80;;;;;;4210871;28;20051;-67
2022/05/09 12:29:24;;;;;;;0.75;0.75;;;21.10;46.70;;;;;;4211478;28;20052;-67
2022/05/09 12:31:48;;;;;;;0.00;0.00;;;21.10;46.50;;;;;;4216660;27;20090;-68
2022/05/09 12:34:13;;;;;;;0.00;0.00;;;21.20;46.50;;;;;;4224567;27;20040;-67
2022/05/09 12:36:37;;;;;;;0.00;0.00;;;21.20;46.50;;;;;;4210253;28;20052;-68
2022/05/09 12:39:14;;;;;;;0.20;0.20;;;21.20;46.50;;;;;;4208704;28;20059;-68
2022/05/09 12:41:43;;;;;;;0.00;0.00;;;21.20;46.40;;;;;;4213221;28;20043;-67
2022/05/09 12:44:11;;;;;;;0.00;0.00;;;21.30;46.40;;;;;;4193780;28;20169;-68
2022/05/09 12:46:40;;;;;;;0.00;0.00;;;21.30;46.30;;;;;;4194066;28;20044;-67
2022/05/09 12:49:06;;;;;;;0.32;0.32;;;21.30;46.20;;;;;;4194158;28;20049;-67
2022/05/09 12:51:29;;;;;;;0.00;0.00;;;21.30;46.50;;;;;;4197830;27;20055;-66
2022/05/09 12:53:52;;;;;;;0.28;0.28;;;21.40;47.00;;;;;;4210551;28;20097;-67
2022/05/09 12:56:19;;;;;;;0.77;0.73;;;21.40;46.90;;;;;;4210850;28;20078;-66